首页
METAR-TAF:

METAR-TAF

机场 :

Gioia del Colle, 意大利

纬度: 40-46N, 经度: 016-56E, 海拔: 345米

当前天气观测

该预报发布于1小时和18分钟前的18:55 UTC
风速6节,风向北转西北
温度 14°C
湿度 94%
气压 1004 hPa
能見度: 2500
多云层高于400英尺
散云层高于1000英尺
小雨, 轻雾

METAR: LIBV 051855Z 34006KT 2500 -RA BR BKN004 SCT010 14/13 Q1004 RMK OVC VIS MIN 2500 WIND THR32 36007KT WIND THR14 34009KT YLO

时间: 22:13 (20:13 UTC)

预报

该预报发布于3小时和13分钟前的17:00 UTC
预报有效从05日的 18点(UTC)到 06日的 03点(UTC)
风速7节,风向
能見度: 4000
散云层高于500英尺
散云层高于800英尺
轻雾
短暂存在
从 05日的 18点(UTC)到 05日的 22点(UTC)
能見度: 2000
阴天层高于500英尺

TAF: LIBV 051700Z 0518/0603 01007KT 4000 BR SCT005 SCT008 TEMPO 0518/0522 2000 RA OVC005

超过4000个机场的气象观测和天气预报(METAR&TAF报告)。

可查询的气象台以黄色和红色小点在地图上表示。

将鼠标移到小点上方,可查看气象台名称。

然后点击查看天气观测和预报。

如需切换地图:点击带黑十字的绿色按钮放大地图;点击带横线的绿色按钮缩小地图;或者点击绿色箭头查看邻近地区的地图。


METAR-TAF: